Time;durP1;ratioP1;P1;durP2;ratioP2;P2;SDS_P1;SDS_P2;PMS_P1;PMS_P2;Temp;Humidity;BMP_temperature;BMP_pressure;BME280_temperature;BME280_humidity;BME280_pressure;Samples;Min_cycle;Max_cycle;Signal;HPM_P1;HPM_P2
2023/04/21 00:00:26;;;;;;;28.83;19.38;;;10.10;99.90;;;;;;4977767;28;20084;-76
2023/04/21 00:02:51;;;;;;;26.35;18.42;;;10.10;99.90;;;;;;4993217;28;20100;-76
2023/04/21 00:05:17;;;;;;;27.05;19.40;;;10.10;99.90;;;;;;5010676;28;20466;-76
2023/04/21 00:07:45;;;;;;;28.98;19.58;;;10.00;99.90;;;;;;5010493;28;20064;-75
2023/04/21 00:10:11;;;;;;;26.63;18.63;;;10.00;99.90;;;;;;4995914;28;20049;-75
2023/04/21 00:12:37;;;;;;;26.17;19.13;;;10.00;99.90;;;;;;4979360;28;20426;-75
2023/04/21 00:15:04;;;;;;;28.00;19.15;;;10.00;99.90;;;;;;4996628;28;20502;-75
2023/04/21 00:17:29;;;;;;;30.33;18.75;;;10.00;99.90;;;;;;5015185;28;20466;-75
2023/04/21 00:19:55;;;;;;;26.05;18.52;;;10.00;99.90;;;;;;5014363;28;20073;-75
2023/04/21 00:22:21;;;;;;;28.98;18.65;;;10.00;99.90;;;;;;5014498;28;20121;-76
2023/04/21 00:24:46;;;;;;;28.75;19.20;;;10.00;99.90;;;;;;4996201;28;20474;-75
2023/04/21 00:27:14;;;;;;;30.48;19.05;;;9.90;99.90;;;;;;5013997;28;20050;-76
2023/04/21 00:29:40;;;;;;;26.75;18.92;;;9.90;99.90;;;;;;4986604;28;20277;-75
2023/04/21 00:32:09;;;;;;;25.90;18.20;;;9.90;99.90;;;;;;5014254;28;20521;-75
2023/04/21 00:34:35;;;;;;;28.10;19.38;;;9.90;99.90;;;;;;5011796;28;20046;-75
2023/04/21 00:37:02;;;;;;;28.17;18.98;;;10.50;99.90;;;;;;4992307;28;20042;-76
2023/04/21 00:39:28;;;;;;;31.75;18.38;;;9.80;99.90;;;;;;4996805;28;20045;-76
2023/04/21 00:41:53;;;;;;;29.35;17.98;;;10.70;99.90;;;;;;4996095;28;20029;-76
2023/04/21 00:44:19;;;;;;;29.65;18.38;;;9.80;99.90;;;;;;4996057;28;20034;-76
2023/04/21 00:46:44;;;;;;;30.95;18.42;;;9.80;99.90;;;;;;5013920;28;20045;-76
2023/04/21 00:49:12;;;;;;;28.23;17.20;;;9.70;99.90;;;;;;4991829;28;20058;-75
2023/04/21 00:51:38;;;;;;;27.25;18.02;;;9.70;99.90;;;;;;5011226;28;20418;-75
2023/04/21 00:54:05;;;;;;;28.15;17.95;;;9.70;99.90;;;;;;4996225;28;20052;-76
2023/04/21 00:56:33;;;;;;;28.92;17.27;;;9.70;99.90;;;;;;5012960;28;20064;-74
2023/04/21 00:58:59;;;;;;;29.48;17.60;;;9.60;99.90;;;;;;5009799;28;20096;-74
2023/04/21 01:01:28;;;;;;;28.23;17.48;;;9.60;99.90;;;;;;5013664;28;20117;-75
2023/04/21 01:03:57;;;;;;;29.95;17.80;;;9.60;99.90;;;;;;5013151;28;20038;-74
2023/04/21 01:06:24;;;;;;;33.25;17.15;;;9.60;99.90;;;;;;5013574;28;20038;-75
2023/04/21 01:08:52;;;;;;;26.38;16.08;;;9.60;99.90;;;;;;4979583;28;20053;-74
2023/04/21 01:11:17;;;;;;;25.05;16.02;;;9.60;99.90;;;;;;4990291;28;20080;-75
2023/04/21 01:13:43;;;;;;;27.95;17.02;;;9.60;99.90;;;;;;5013124;28;20129;-75
2023/04/21 01:16:15;;;;;;;27.30;17.15;;;9.60;99.90;;;;;;4994979;28;20034;-76
2023/04/21 01:18:41;;;;;;;;;;;9.50;99.90;;;;;;5013729;28;20557;-75
2023/04/21 01:21:07;;;;;;;25.98;16.52;;;9.50;99.90;;;;;;5012391;28;20433;-74
2023/04/21 01:23:32;;;;;;;24.23;15.48;;;9.50;99.90;;;;;;5013132;28;20073;-75
2023/04/21 01:25:58;;;;;;;25.65;16.60;;;9.50;99.90;;;;;;5013535;28;20129;-74
2023/04/21 01:28:24;;;;;;;24.08;16.35;;;9.50;99.90;;;;;;5012775;28;20042;-74
2023/04/21 01:30:51;;;;;;;25.35;16.33;;;9.50;99.90;;;;;;4999894;28;20431;-74
2023/04/21 01:33:17;;;;;;;28.08;16.02;;;9.50;99.90;;;;;;4988144;28;20078;-74
2023/04/21 01:35:44;;;;;;;25.92;15.63;;;9.40;99.90;;;;;;4987069;28;20068;-74
2023/04/21 01:38:09;;;;;;;29.48;15.80;;;9.40;99.90;;;;;;4995948;28;20061;-76
2023/04/21 01:40:35;;;;;;;23.90;14.90;;;9.40;99.90;;;;;;4995364;28;20124;-74
2023/04/21 01:43:02;;;;;;;28.05;15.77;;;9.60;99.90;;;;;;4978556;28;20046;-75
2023/04/21 01:45:29;;;;;;;24.33;14.13;;;9.40;99.90;;;;;;5014778;28;20105;-75
2023/04/21 01:47:57;;;;;;;26.55;14.85;;;9.40;99.90;;;;;;5014558;28;20149;-76
2023/04/21 01:50:23;;;;;;;24.67;16.35;;;9.40;99.90;;;;;;5014215;28;20073;-76
2023/04/21 01:52:49;;;;;;;26.02;14.60;;;9.50;99.90;;;;;;4979014;28;20041;-75
2023/04/21 01:55:14;;;;;;;22.17;15.85;;;9.50;99.90;;;;;;5012892;28;20034;-75
2023/04/21 01:57:40;;;;;;;21.30;14.40;;;9.40;99.90;;;;;;5012980;28;20537;-75
2023/04/21 02:00:08;;;;;;;21.83;14.48;;;9.40;99.90;;;;;;4980023;28;20133;-76
2023/04/21 02:02:33;;;;;;;25.17;14.75;;;9.40;99.90;;;;;;5014894;28;20042;-75
2023/04/21 02:04:59;;;;;;;21.85;14.63;;;9.50;99.90;;;;;;4995382;28;20390;-75
2023/04/21 02:07:24;;;;;;;23.00;14.95;;;9.40;99.90;;;;;;5011954;28;20168;-75
2023/04/21 02:09:50;;;;;;;24.27;14.80;;;9.40;99.90;;;;;;5011934;28;20117;-75
2023/04/21 02:12:16;;;;;;;23.58;14.07;;;9.40;99.90;;;;;;5012574;28;20045;-75
2023/04/21 02:14:41;;;;;;;22.25;14.13;;;9.40;99.90;;;;;;4978196;28;20065;-75
2023/04/21 02:17:07;;;;;;;21.13;13.30;;;9.50;99.90;;;;;;5012273;28;20046;-75
2023/04/21 02:19:33;;;;;;;22.35;13.93;;;9.50;99.90;;;;;;5012007;28;20080;-74
2023/04/21 02:21:59;;;;;;;23.42;13.95;;;9.50;99.90;;;;;;4991330;28;20085;-75
2023/04/21 02:24:24;;;;;;;20.00;13.75;;;9.50;99.90;;;;;;5011741;28;20046;-75
2023/04/21 02:26:50;;;;;;;20.27;13.85;;;9.50;99.90;;;;;;5017124;28;20046;-75
2023/04/21 02:29:16;;;;;;;21.92;13.38;;;9.50;99.90;;;;;;4994456;28;20038;-75
2023/04/21 02:31:41;;;;;;;23.58;13.63;;;9.50;99.90;;;;;;5003515;28;20096;-75
2023/04/21 02:34:07;;;;;;;23.80;14.20;;;9.50;99.90;;;;;;4984888;28;20084;-74
2023/04/21 02:36:33;;;;;;;21.25;13.57;;;9.50;99.90;;;;;;5011936;28;20046;-75
2023/04/21 02:38:58;;;;;;;23.23;14.30;;;9.50;99.90;;;;;;5012812;28;20069;-75
2023/04/21 02:41:24;;;;;;;24.65;13.85;;;9.50;99.90;;;;;;4989512;28;20113;-75
2023/04/21 02:43:50;;;;;;;24.83;13.43;;;9.50;99.90;;;;;;5010354;28;20068;-75
2023/04/21 02:46:15;;;;;;;21.48;13.52;;;9.50;99.90;;;;;;5011246;28;20034;-74
2023/04/21 02:48:41;;;;;;;20.30;13.30;;;9.50;99.90;;;;;;5011447;28;20041;-75
2023/04/21 02:51:16;;;;;;;20.83;13.02;;;9.50;99.90;;;;;;4994380;28;20037;-75
2023/04/21 02:53:43;;;;;;;22.15;14.68;;;9.50;99.90;;;;;;4978264;28;20129;-75
2023/04/21 02:56:09;;;;;;;22.58;13.05;;;9.50;99.90;;;;;;4977096;28;20112;-75
2023/04/21 02:58:35;;;;;;;23.38;13.45;;;9.50;99.90;;;;;;4993704;28;20054;-75
2023/04/21 03:01:02;;;;;;;21.48;12.65;;;9.50;99.90;;;;;;5014075;28;20061;-75
2023/04/21 03:03:28;;;;;;;20.95;12.95;;;9.50;99.90;;;;;;5004898;28;20042;-75
2023/04/21 03:05:58;;;;;;;20.15;12.88;;;9.40;99.90;;;;;;4993467;28;20496;-75
2023/04/21 03:08:24;;;;;;;21.08;12.40;;;9.50;99.90;;;;;;5004818;28;20621;-75
2023/04/21 03:10:50;;;;;;;22.35;12.57;;;9.50;99.90;;;;;;4992478;28;20076;-74
2023/04/21 03:13:16;;;;;;;20.55;12.80;;;9.50;99.90;;;;;;4989313;28;20806;-75
2023/04/21 03:15:41;;;;;;;24.15;13.00;;;9.50;99.90;;;;;;5007503;28;20046;-75
2023/04/21 03:18:07;;;;;;;22.50;13.38;;;9.50;99.90;;;;;;4993955;28;20045;-75
2023/04/21 03:20:33;;;;;;;24.35;12.23;;;9.50;99.90;;;;;;4975410;28;20040;-74
2023/04/21 03:22:58;;;;;;;21.48;13.15;;;9.60;99.90;;;;;;4993553;28;20033;-75
2023/04/21 03:25:26;;;;;;;17.35;11.85;;;9.60;99.90;;;;;;4977274;28;20038;-76
2023/04/21 03:27:52;;;;;;;20.38;12.95;;;9.60;99.90;;;;;;5009791;28;20088;-75
2023/04/21 03:30:18;;;;;;;16.55;11.55;;;9.60;99.90;;;;;;4989498;28;20076;-76
2023/04/21 03:32:43;;;;;;;22.40;12.35;;;9.60;99.90;;;;;;4990422;28;20493;-75
2023/04/21 03:35:09;;;;;;;21.42;11.80;;;9.60;99.90;;;;;;5010943;28;20042;-75
2023/04/21 03:37:35;;;;;;;20.67;12.40;;;9.60;99.90;;;;;;4991893;28;20119;-75
2023/04/21 03:40:01;;;;;;;17.98;12.25;;;10.50;99.90;;;;;;4998627;28;20116;-75
2023/04/21 03:42:28;;;;;;;18.90;12.20;;;9.70;99.90;;;;;;5011042;28;20518;-75
2023/04/21 03:44:54;;;;;;;19.92;12.05;;;9.70;99.90;;;;;;5012820;28;20434;-74
2023/04/21 03:47:19;;;;;;;19.27;11.75;;;9.70;99.90;;;;;;4986612;28;20459;-75
2023/04/21 03:49:45;;;;;;;16.67;11.60;;;9.70;99.90;;;;;;4998994;28;20598;-74
2023/04/21 03:52:11;;;;;;;18.48;11.02;;;9.80;99.90;;;;;;5015006;28;20168;-75
2023/04/21 03:54:36;;;;;;;18.02;11.73;;;9.80;99.90;;;;;;5014477;28;20513;-75
2023/04/21 03:57:02;;;;;;;20.30;11.70;;;9.80;99.90;;;;;;5011352;28;20402;-75
2023/04/21 03:59:27;;;;;;;20.85;11.02;;;9.80;99.90;;;;;;5008025;28;20494;-75
2023/04/21 04:01:54;;;;;;;19.73;11.60;;;9.80;99.90;;;;;;4996706;28;20069;-75
2023/04/21 04:04:19;;;;;;;18.02;10.57;;;9.80;99.90;;;;;;4972568;28;20062;-75
2023/04/21 04:06:45;;;;;;;20.25;11.48;;;9.80;99.90;;;;;;4995962;28;20041;-74
2023/04/21 04:09:12;;;;;;;19.58;11.15;;;10.70;99.90;;;;;;4980844;28;20045;-75
2023/04/21 04:11:38;;;;;;;18.08;11.13;;;9.90;99.90;;;;;;4981382;28;20038;-76
2023/04/21 04:14:04;;;;;;;18.30;11.10;;;9.80;99.90;;;;;;4978105;28;20045;-75
2023/04/21 04:16:30;;;;;;;18.75;11.23;;;10.80;99.90;;;;;;4980707;28;20041;-75
2023/04/21 04:18:55;;;;;;;22.42;11.57;;;9.80;99.90;;;;;;4997113;28;20112;-75
2023/04/21 04:21:21;;;;;;;15.60;11.20;;;9.90;99.90;;;;;;5008805;28;20030;-75
2023/04/21 04:23:50;;;;;;;19.92;12.10;;;9.90;99.90;;;;;;5013272;28;20042;-75
2023/04/21 04:26:16;;;;;;;20.88;11.20;;;9.80;99.90;;;;;;4992624;28;20109;-75
2023/04/21 04:28:41;;;;;;;17.55;11.15;;;9.90;99.90;;;;;;5012853;28;20176;-75
2023/04/21 04:31:07;;;;;;;18.02;11.05;;;9.90;99.90;;;;;;4998417;28;20070;-75
2023/04/21 04:33:32;;;;;;;20.25;11.98;;;9.90;99.90;;;;;;5010095;28;20065;-74
2023/04/21 04:35:58;;;;;;;19.25;11.20;;;9.90;99.90;;;;;;4994498;28;20115;-75
2023/04/21 04:38:25;;;;;;;17.67;11.40;;;9.90;99.90;;;;;;4990614;28;20561;-75
2023/04/21 04:40:56;;;;;;;21.02;11.45;;;9.90;99.90;;;;;;4979793;28;20430;-75
2023/04/21 04:43:22;;;;;;;19.20;11.85;;;9.90;99.90;;;;;;5012940;28;20095;-75
2023/04/21 04:45:47;;;;;;;22.27;10.95;;;9.80;99.90;;;;;;4995948;28;20044;-75
2023/04/21 04:48:13;;;;;;;19.00;10.45;;;9.80;99.90;;;;;;4996314;28;20045;-75
2023/04/21 04:50:39;;;;;;;18.52;10.75;;;9.80;99.90;;;;;;4979933;28;20056;-75
2023/04/21 04:53:04;;;;;;;21.27;11.52;;;9.80;99.90;;;;;;4996180;28;20445;-76
2023/04/21 04:55:31;;;;;;;17.50;11.15;;;9.80;99.90;;;;;;4996393;28;20042;-76
2023/04/21 04:57:56;;;;;;;15.57;11.00;;;9.80;99.90;;;;;;5005534;28;20505;-75
2023/04/21 05:00:22;;;;;;;19.65;11.25;;;9.80;99.90;;;;;;5002661;28;20131;-75
2023/04/21 05:02:48;;;;;;;16.73;11.52;;;9.80;99.90;;;;;;4994584;28;20112;-75
2023/04/21 05:05:16;;;;;;;15.00;10.43;;;9.80;99.90;;;;;;5011235;28;20129;-75
2023/04/21 05:07:42;;;;;;;20.70;10.35;;;9.80;99.90;;;;;;4978881;28;20041;-75
2023/04/21 05:10:08;;;;;;;18.20;11.15;;;9.80;99.90;;;;;;5013235;28;20405;-75
2023/04/21 05:12:33;;;;;;;21.85;11.50;;;9.80;99.90;;;;;;4979807;28;20038;-75
2023/04/21 05:14:59;;;;;;;17.73;11.18;;;9.80;99.90;;;;;;4995349;28;20029;-75
2023/04/21 05:17:25;;;;;;;20.50;12.07;;;9.80;99.90;;;;;;5013771;28;20045;-75
2023/04/21 05:19:50;;;;;;;19.77;11.05;;;9.80;99.90;;;;;;4996213;28;20509;-76
2023/04/21 05:22:16;;;;;;;17.40;11.05;;;9.80;99.90;;;;;;5000368;28;20038;-75
2023/04/21 05:24:42;;;;;;;19.88;11.10;;;10.30;99.90;;;;;;5019815;28;20125;-75
2023/04/21 05:27:08;;;;;;;16.33;10.70;;;9.90;99.90;;;;;;5003547;28;20080;-76
2023/04/21 05:29:34;;;;;;;16.67;11.00;;;9.80;99.90;;;;;;5021456;28;20317;-75
2023/04/21 05:32:01;;;;;;;17.77;11.35;;;9.90;99.90;;;;;;4995970;28;20041;-76
2023/04/21 05:34:26;;;;;;;18.77;10.73;;;9.70;99.90;;;;;;4995616;28;20506;-75
2023/04/21 05:36:53;;;;;;;19.40;11.20;;;9.90;99.90;;;;;;5012695;28;20034;-75
2023/04/21 05:39:19;;;;;;;20.83;10.98;;;9.90;99.90;;;;;;4996500;28;20559;-75
2023/04/21 05:41:45;;;;;;;21.15;10.93;;;9.90;99.90;;;;;;5017899;28;20104;-75
2023/04/21 05:44:11;;;;;;;18.75;11.07;;;9.90;99.90;;;;;;4999888;28;20502;-75
2023/04/21 05:46:37;;;;;;;16.67;10.90;;;9.90;99.90;;;;;;5012947;28;20034;-74
2023/04/21 05:49:03;;;;;;;16.45;10.45;;;10.00;99.90;;;;;;4978899;28;20038;-75
2023/04/21 05:51:28;;;;;;;16.35;10.75;;;10.00;99.90;;;;;;5009252;28;20030;-74
2023/04/21 05:53:54;;;;;;;16.70;10.68;;;10.00;99.90;;;;;;4973483;28;20111;-75
2023/04/21 05:56:20;;;;;;;17.52;10.50;;;10.00;99.90;;;;;;5011461;28;20034;-75
2023/04/21 05:58:45;;;;;;;18.45;11.13;;;10.10;99.90;;;;;;5012371;28;20046;-75
2023/04/21 06:01:11;;;;;;;18.20;11.25;;;10.10;99.90;;;;;;4992869;28;20121;-76
2023/04/21 06:03:37;;;;;;;19.20;10.50;;;10.10;99.90;;;;;;5012497;28;20042;-75
2023/04/21 06:06:05;;;;;;;15.52;10.77;;;10.10;99.90;;;;;;5012602;28;20307;-74
2023/04/21 06:08:31;;;;;;;18.92;10.75;;;10.10;99.90;;;;;;5005766;28;20101;-75
2023/04/21 06:10:56;;;;;;;20.40;11.27;;;10.10;99.90;;;;;;4966053;28;20045;-74
2023/04/21 06:13:23;;;;;;;19.02;11.32;;;10.20;99.90;;;;;;4998781;28;20418;-74
2023/04/21 06:15:48;;;;;;;17.70;11.25;;;10.20;99.90;;;;;;5019346;28;20436;-76
2023/04/21 06:18:15;;;;;;;13.70;10.38;;;10.20;99.90;;;;;;5011977;28;20096;-76
2023/04/21 06:20:41;;;;;;;18.73;10.63;;;10.30;99.90;;;;;;4978487;28;20479;-75
2023/04/21 06:23:08;;;;;;;17.65;10.80;;;10.30;99.90;;;;;;4994083;28;20084;-74
2023/04/21 06:25:34;;;;;;;18.27;10.05;;;10.30;99.90;;;;;;4985992;28;20088;-74
2023/04/21 06:28:01;;;;;;;17.63;10.18;;;10.40;99.90;;;;;;4994904;28;20096;-74
2023/04/21 06:30:27;;;;;;;15.88;10.32;;;10.40;99.90;;;;;;4994550;28;20116;-74
2023/04/21 06:32:52;;;;;;;17.60;10.77;;;10.40;99.90;;;;;;5011318;28;20117;-75
2023/04/21 06:35:19;;;;;;;16.05;10.95;;;10.50;99.90;;;;;;5011322;28;20104;-74
2023/04/21 06:37:45;;;;;;;17.33;10.35;;;10.50;99.90;;;;;;4986077;28;20065;-75
2023/04/21 06:40:13;;;;;;;18.92;10.80;;;10.60;99.90;;;;;;5008430;28;20093;-75
2023/04/21 06:42:40;;;;;;;18.55;11.00;;;10.60;99.90;;;;;;5011379;28;20056;-75
2023/04/21 06:45:06;;;;;;;15.73;10.93;;;10.60;99.90;;;;;;4993005;28;20042;-75
2023/04/21 06:47:32;;;;;;;16.65;10.75;;;10.70;99.90;;;;;;5002672;28;20046;-76
2023/04/21 06:49:58;;;;;;;19.55;10.38;;;10.70;99.90;;;;;;5010575;28;20509;-75
2023/04/21 06:52:23;;;;;;;18.55;10.50;;;10.70;99.90;;;;;;4995221;28;20045;-75
2023/04/21 06:54:49;;;;;;;17.98;11.52;;;10.70;99.90;;;;;;5013503;28;20037;-77
2023/04/21 06:57:16;;;;;;;16.42;10.50;;;10.80;99.90;;;;;;4983948;28;20042;-76
2023/04/21 06:59:44;;;;;;;16.70;10.73;;;10.80;99.90;;;;;;4994290;28;20054;-75
2023/04/21 07:02:10;;;;;;;17.20;10.52;;;10.80;99.90;;;;;;5010606;28;20042;-77
2023/04/21 07:04:36;;;;;;;19.20;11.05;;;10.80;99.90;;;;;;4993439;28;20052;-77
2023/04/21 07:07:02;;;;;;;16.15;10.70;;;10.90;99.90;;;;;;5010079;28;20050;-77
2023/04/21 07:09:28;;;;;;;19.00;10.85;;;10.90;99.90;;;;;;5011733;28;20034;-76
2023/04/21 07:11:57;;;;;;;17.33;11.15;;;11.00;99.90;;;;;;4992547;28;20060;-77
2023/04/21 07:14:23;;;;;;;18.05;11.18;;;11.00;99.90;;;;;;4971875;28;20085;-75
2023/04/21 07:16:49;;;;;;;16.77;11.10;;;11.50;99.90;;;;;;4975004;28;20190;-77
2023/04/21 07:19:15;;;;;;;18.27;10.45;;;11.10;99.90;;;;;;5001605;28;20057;-75
2023/04/21 07:21:41;;;;;;;18.20;11.02;;;11.20;99.90;;;;;;4993004;28;20033;-75
2023/04/21 07:24:08;;;;;;;18.50;10.98;;;11.20;99.90;;;;;;4981596;28;20464;-76
2023/04/21 07:26:33;;;;;;;16.98;10.63;;;11.30;99.90;;;;;;5015248;28;20120;-74
2023/04/21 07:29:01;;;;;;;17.85;11.02;;;11.30;99.90;;;;;;5014752;28;20052;-75
2023/04/21 07:31:27;;;;;;;17.90;10.77;;;11.40;99.90;;;;;;5015205;28;20061;-75
2023/04/21 07:33:52;;;;;;;18.60;10.48;;;11.40;99.90;;;;;;5019147;28;20076;-75
2023/04/21 07:36:18;;;;;;;16.38;10.18;;;11.50;99.90;;;;;;4997248;28;20494;-76
2023/04/21 07:38:44;;;;;;;18.17;10.13;;;11.60;99.90;;;;;;5020824;28;20096;-75
2023/04/21 07:41:10;;;;;;;19.75;11.32;;;11.70;99.90;;;;;;5021561;28;20049;-74
2023/04/21 07:43:37;;;;;;;17.50;10.30;;;11.80;99.90;;;;;;4986787;28;20044;-74
2023/04/21 07:46:03;;;;;;;16.77;10.85;;;11.80;99.90;;;;;;5014459;28;20065;-75
2023/04/21 07:48:29;;;;;;;17.08;10.82;;;11.90;99.90;;;;;;4980785;28;20081;-74
2023/04/21 07:50:54;;;;;;;16.60;10.70;;;12.30;99.90;;;;;;4980794;28;20046;-74
2023/04/21 07:53:20;;;;;;;15.68;10.40;;;12.00;99.90;;;;;;5021756;28;20056;-74
2023/04/21 07:55:45;;;;;;;19.58;10.60;;;12.00;99.90;;;;;;5014404;28;20057;-75
2023/04/21 07:58:12;;;;;;;22.55;11.10;;;12.10;99.90;;;;;;5014622;28;20061;-74
2023/04/21 08:00:38;;;;;;;17.70;11.10;;;12.20;99.90;;;;;;4997401;28;20046;-75
2023/04/21 08:03:04;;;;;;;17.00;10.70;;;12.30;99.90;;;;;;5014663;28;20112;-75
2023/04/21 08:05:31;;;;;;;19.52;11.05;;;12.30;99.90;;;;;;5007333;28;20497;-74
2023/04/21 08:07:56;;;;;;;16.58;11.25;;;12.40;99.90;;;;;;5002845;28;20081;-74
2023/04/21 08:10:22;;;;;;;16.00;10.48;;;12.50;99.90;;;;;;4996715;28;20513;-74
2023/04/21 08:12:47;;;;;;;18.02;10.63;;;12.90;99.90;;;;;;5013783;28;20065;-75
2023/04/21 08:15:17;;;;;;;23.48;11.07;;;12.70;99.90;;;;;;5014458;28;20038;-75
2023/04/21 08:17:43;;;;;;;17.65;10.82;;;12.70;99.90;;;;;;4993800;28;20121;-75
2023/04/21 08:20:09;;;;;;;17.98;10.23;;;12.80;99.90;;;;;;5020848;28;20120;-75
2023/04/21 08:22:37;;;;;;;17.45;10.57;;;12.80;99.90;;;;;;5014359;28;20489;-75
2023/04/21 08:25:04;;;;;;;20.20;10.93;;;12.80;99.90;;;;;;4979905;28;20061;-75
2023/04/21 08:27:30;;;;;;;19.35;10.68;;;12.90;99.90;;;;;;4999840;28;20048;-76
2023/04/21 08:29:57;;;;;;;15.30;10.70;;;13.00;99.90;;;;;;5013651;28;20048;-74
2023/04/21 08:32:23;;;;;;;17.85;10.68;;;13.10;99.90;;;;;;5014787;28;20095;-75
2023/04/21 08:34:51;;;;;;;16.23;11.07;;;13.20;99.90;;;;;;5014032;28;20038;-75
2023/04/21 08:37:18;;;;;;;15.18;10.57;;;13.30;99.90;;;;;;5003949;28;20093;-75
2023/04/21 08:39:46;;;;;;;17.63;11.52;;;13.50;99.90;;;;;;5012589;28;20065;-76
2023/04/21 08:42:16;;;;;;;17.25;10.95;;;13.60;99.90;;;;;;5005814;28;20061;-76
2023/04/21 08:44:42;;;;;;;16.05;10.63;;;13.90;99.90;;;;;;5011676;28;20065;-76
2023/04/21 08:47:12;;;;;;;18.05;10.43;;;14.00;99.90;;;;;;5013747;28;20073;-76
2023/04/21 08:49:39;;;;;;;15.48;11.00;;;14.20;99.90;;;;;;5014031;28;20042;-76
2023/04/21 08:52:05;;;;;;;17.13;10.85;;;14.50;99.90;;;;;;4979654;28;20554;-76
2023/04/21 08:54:32;;;;;;;18.15;10.57;;;14.60;99.90;;;;;;4996677;28;20041;-75
2023/04/21 08:56:58;;;;;;;17.05;11.43;;;14.70;99.90;;;;;;5006848;28;20087;-75
2023/04/21 08:59:23;;;;;;;15.60;9.93;;;15.10;99.90;;;;;;5013223;28;20041;-75
2023/04/21 09:02:13;;;;;;;16.45;10.05;;;14.80;99.90;;;;;;4996052;28;20034;-75
2023/04/21 09:04:47;;;;;;;17.00;11.02;;;14.80;99.90;;;;;;5010418;28;20097;-76
2023/04/21 09:07:36;;;;;;;18.08;10.70;;;14.70;99.90;;;;;;4995948;28;20411;-77
2023/04/21 09:10:04;;;;;;;17.40;10.45;;;14.70;99.90;;;;;;4979962;28;20049;-75
2023/04/21 09:12:29;;;;;;;19.23;10.75;;;14.70;99.90;;;;;;4995369;28;20464;-76
2023/04/21 09:14:59;;;;;;;17.98;10.60;;;14.70;99.90;;;;;;5012986;28;20042;-77
2023/04/21 09:17:31;;;;;;;16.02;10.27;;;14.80;99.90;;;;;;5008465;28;20042;-75
2023/04/21 09:20:10;;;;;;;16.33;10.52;;;14.90;99.90;;;;;;5011319;28;20069;-75
2023/04/21 09:22:37;;;;;;;17.92;10.98;;;15.00;99.90;;;;;;5013320;28;20053;-76
2023/04/21 09:25:02;;;;;;;19.63;10.70;;;15.10;99.90;;;;;;4995763;28;20076;-75
2023/04/21 09:27:28;;;;;;;16.73;10.50;;;15.20;99.90;;;;;;4995577;28;20069;-75
2023/04/21 09:29:54;;;;;;;15.68;10.68;;;15.30;99.90;;;;;;4995186;28;20461;-76
2023/04/21 09:32:20;;;;;;;17.30;10.45;;;15.20;99.90;;;;;;4995032;28;20048;-76
2023/04/21 09:34:46;;;;;;;13.95;10.32;;;15.20;99.90;;;;;;4990921;28;20095;-75
2023/04/21 09:37:13;;;;;;;18.40;11.13;;;15.30;99.90;;;;;;4994948;28;20518;-75
2023/04/21 09:39:38;;;;;;;20.35;11.40;;;15.30;99.90;;;;;;4979185;28;20171;-75
2023/04/21 09:42:04;;;;;;;18.35;11.13;;;15.40;99.90;;;;;;4994910;28;20112;-75
2023/04/21 09:44:30;;;;;;;16.13;10.85;;;15.40;99.90;;;;;;4995129;28;20613;-75
2023/04/21 09:47:03;;;;;;;16.08;10.77;;;15.80;99.90;;;;;;4999030;28;20057;-75
2023/04/21 09:49:30;;;;;;;19.98;11.65;;;15.70;99.90;;;;;;4980217;28;20042;-75
2023/04/21 09:52:00;;;;;;;18.75;11.45;;;15.80;99.90;;;;;;4995890;28;20046;-75
2023/04/21 09:54:33;;;;;;;17.23;11.07;;;16.20;99.90;;;;;;5016561;28;20124;-75
2023/04/21 09:57:01;;;;;;;16.63;10.93;;;16.40;99.90;;;;;;5012262;28;20058;-77
2023/04/21 09:59:33;;;;;;;15.77;11.18;;;16.40;99.90;;;;;;5012297;28;20405;-76
2023/04/21 10:02:02;;;;;;;17.33;11.30;;;16.30;99.90;;;;;;5012457;28;20113;-75
2023/04/21 10:04:31;;;;;;;17.08;10.90;;;16.30;99.90;;;;;;4991923;28;20121;-75
2023/04/21 10:06:58;;;;;;;17.77;11.70;;;16.20;99.90;;;;;;5012070;28;20046;-75
2023/04/21 10:09:30;;;;;;;16.10;11.40;;;16.20;99.90;;;;;;5012499;28;20045;-75
2023/04/21 10:11:56;;;;;;;19.42;11.93;;;16.30;99.90;;;;;;4978367;28;20034;-75
2023/04/21 10:14:25;;;;;;;18.58;11.68;;;16.30;99.90;;;;;;5018868;28;20044;-75
2023/04/21 10:17:07;;;;;;;17.92;11.32;;;16.30;99.90;;;;;;4991522;28;20517;-77
2023/04/21 10:19:38;;;;;;;18.70;11.10;;;16.30;99.90;;;;;;4978170;28;20033;-75
2023/04/21 10:22:08;;;;;;;19.35;11.02;;;16.30;99.90;;;;;;4983269;28;20073;-76
2023/04/21 10:24:41;;;;;;;17.27;11.30;;;16.30;99.90;;;;;;5011671;28;20041;-75
2023/04/21 10:27:11;;;;;;;19.20;12.35;;;16.30;99.90;;;;;;5008324;28;20157;-75
2023/04/21 10:29:37;;;;;;;17.38;12.27;;;16.20;99.90;;;;;;5008952;28;20046;-79
2023/04/21 10:32:03;;;;;;;18.30;11.38;;;16.10;99.90;;;;;;4994749;28;20193;-75
2023/04/21 10:34:37;;;;;;;15.43;11.05;;;16.00;99.90;;;;;;4994018;28;20046;-75
2023/04/21 10:37:02;;;;;;;16.55;11.88;;;16.00;99.90;;;;;;5011563;28;20473;-75
2023/04/21 10:39:51;;;;;;;15.45;11.98;;;16.00;99.90;;;;;;5012050;28;20044;-75
2023/04/21 10:42:26;;;;;;;18.77;11.85;;;15.90;99.90;;;;;;5003046;28;20045;-75
2023/04/21 10:44:58;;;;;;;17.38;11.98;;;15.90;99.90;;;;;;5011509;28;20545;-77
2023/04/21 10:47:28;;;;;;;;;;;15.90;99.90;;;;;;5011922;28;20052;-76
2023/04/21 10:49:57;;;;;;;17.20;11.82;;;15.90;99.90;;;;;;5011716;28;20404;-77
2023/04/21 10:52:33;;;;;;;17.95;12.25;;;15.80;99.90;;;;;;4997189;28;20033;-75
2023/04/21 10:54:59;;;;;;;18.65;12.38;;;15.80;99.90;;;;;;5009786;28;20045;-75
2023/04/21 10:57:24;;;;;;;23.75;12.32;;;15.80;99.90;;;;;;5011222;28;20046;-75
2023/04/21 10:59:52;;;;;;;18.55;12.45;;;15.80;99.90;;;;;;4977980;28;20038;-77
2023/04/21 11:02:18;;;;;;;21.08;12.98;;;15.70;99.90;;;;;;4978109;28;20049;-75
2023/04/21 11:04:46;;;;;;;21.75;13.70;;;15.70;99.90;;;;;;5016532;28;20033;-75
2023/04/21 11:07:13;;;;;;;20.08;12.48;;;15.80;99.90;;;;;;5011499;28;20042;-75
2023/04/21 11:09:40;;;;;;;20.48;12.65;;;15.80;99.90;;;;;;5011664;28;20042;-75
2023/04/21 11:12:10;;;;;;;18.90;12.27;;;15.90;99.90;;;;;;5006802;28;20088;-75
2023/04/21 11:14:37;;;;;;;18.23;13.18;;;16.00;99.90;;;;;;5012872;28;20046;-75
2023/04/21 11:17:09;;;;;;;16.95;12.77;;;16.50;99.90;;;;;;5010396;28;20121;-76
2023/04/21 11:19:35;;;;;;;19.77;12.35;;;16.10;99.90;;;;;;5000031;28;20040;-76
2023/04/21 11:22:02;;;;;;;20.08;12.80;;;16.20;99.90;;;;;;4990927;28;20113;-78
2023/04/21 11:24:28;;;;;;;18.50;12.73;;;16.20;99.90;;;;;;5008466;28;20113;-75
2023/04/21 11:26:53;;;;;;;18.65;13.45;;;16.30;99.90;;;;;;5010612;28;20567;-75
2023/04/21 11:29:19;;;;;;;19.13;12.75;;;16.30;99.90;;;;;;5004040;28;20038;-75
2023/04/21 11:31:49;;;;;;;16.83;12.93;;;16.30;99.90;;;;;;4989422;28;20376;-75
2023/04/21 11:34:18;;;;;;;20.27;14.00;;;16.30;99.90;;;;;;5005749;28;20042;-75
2023/04/21 11:36:45;;;;;;;20.83;14.07;;;16.40;99.90;;;;;;5007331;28;20076;-76
2023/04/21 11:39:12;;;;;;;22.65;13.48;;;16.40;99.90;;;;;;4992583;28;20041;-75
2023/04/21 11:41:50;;;;;;;18.58;12.70;;;16.50;99.90;;;;;;5008347;28;20501;-75
2023/04/21 11:44:37;;;;;;;19.63;12.88;;;16.60;99.90;;;;;;4988261;28;20030;-76
2023/04/21 11:47:12;;;;;;;21.17;13.85;;;16.60;99.90;;;;;;5008011;28;20069;-75
2023/04/21 11:49:47;;;;;;;19.95;13.60;;;16.60;99.90;;;;;;5006321;28;20041;-76
2023/04/21 11:52:28;;;;;;;21.30;13.70;;;16.60;99.90;;;;;;4992857;28;20148;-76
2023/04/21 11:55:00;;;;;;;20.25;13.52;;;16.50;99.90;;;;;;4993362;28;20034;-77
2023/04/21 11:57:31;;;;;;;18.35;14.38;;;16.60;99.90;;;;;;4994300;28;20043;-75
2023/04/21 12:00:02;;;;;;;21.05;14.88;;;16.60;99.90;;;;;;4990411;28;20048;-77
2023/04/21 12:02:31;;;;;;;24.73;14.40;;;16.60;99.90;;;;;;4991099;28;20038;-75
2023/04/21 12:05:06;;;;;;;23.90;16.13;;;16.60;99.90;;;;;;4972837;28;20036;-74
2023/04/21 12:07:34;;;;;;;19.45;15.05;;;16.60;99.90;;;;;;5013470;28;20111;-78
2023/04/21 12:10:01;;;;;;;22.50;14.77;;;16.70;99.90;;;;;;5000563;28;20454;-76
2023/04/21 12:12:28;;;;;;;20.48;14.52;;;16.70;99.90;;;;;;5012860;28;20073;-75
2023/04/21 12:14:54;;;;;;;19.30;15.10;;;16.70;99.90;;;;;;4991250;28;20053;-79
2023/04/21 12:17:20;;;;;;;18.70;14.75;;;16.70;99.90;;;;;;4980077;28;20437;-75
2023/04/21 12:19:46;;;;;;;26.75;14.95;;;16.80;99.90;;;;;;5011129;28;20038;-75
2023/04/21 12:22:17;;;;;;;24.05;14.63;;;16.90;99.90;;;;;;4996277;28;20552;-74
2023/04/21 12:24:47;;;;;;;19.50;13.75;;;17.10;99.90;;;;;;4996708;28;20061;-77
2023/04/21 12:27:13;;;;;;;25.58;16.70;;;17.20;99.90;;;;;;4996142;28;20038;-74
2023/04/21 12:29:39;;;;;;;19.13;14.70;;;17.40;99.90;;;;;;5011491;28;20486;-74